Flight Track Log - Related Links

Times and Time Zones

All times are in EDT time to prevent confusion due to time zone crossing. See the AMF1324 flight status page for this flight to view local times or setup timezone preferences in your user account.

Time Position Orientation Groundspeed Altitude Reporting Facility
EDT Latitude Longitude Course Direction KTS MPH feet Rate Location/Type
Thu 08:23:23 AM 42.1600 -76.0217 297° West 245 282 5,000  Level Cleveland Center
Thu 08:24:25 AM 42.1564 -76.1153 267° West 255 293 5,400 1,512 Climbing Cleveland Center
Thu 08:25:26 AM 42.1817 -76.1956 293° West 216 249 8,100 2,146 Climbing Cleveland Center
Thu 08:26:28 AM 42.2081 -76.2531 302° West 185 213 9,800 1,659 Climbing Cleveland Center
Thu 08:27:29 AM 42.2369 -76.3294 297° West 197 227 11,500 1,073 Climbing Cleveland Center
Thu 08:28:00 AM 42.2965 -76.2946 297° West  Level Estimated
Thu 08:28:31 AM 42.2653 -76.3944 301° West 201 231 12,000  Level Cleveland Center
Thu 08:29:32 AM 42.2958 -76.4744 297° West 220 253 12,000  Level Cleveland Center
Thu 08:30:34 AM 42.3328 -76.5494 304° West 237 273 12,000  Level Cleveland Center
Thu 08:31:35 AM 42.3725 -76.6222 306° West 241 277 12,000  Level Cleveland Center
Thu 08:32:37 AM 42.4081 -76.6983 302° West 241 277 12,000  Level Cleveland Center
Thu 08:33:39 AM 42.4483 -76.7883 301° West 235 270 12,000  Level Cleveland Center
Thu 08:34:40 AM 42.4814 -76.8664 300° West 238 274 12,000  Level Cleveland Center
Thu 08:35:42 AM 42.5150 -76.9431 301° West 239 275 12,000  Level Cleveland Center
Thu 08:36:43 AM 42.5458 -77.0206 298° West 236 272 12,000  Level Cleveland Center
Thu 08:37:45 AM 42.5731 -77.1019 294° West 239 275 12,000  Level Cleveland Center
Thu 08:38:47 AM 42.6014 -77.1808 296° West 237 273 12,000  Level Cleveland Center
Thu 08:39:25 AM 42.6264 -77.2419 299° West 235 270 12,000 -98 Level Cleveland Center
Thu 08:39:48 AM 42.6317 -77.2586 293° West 234 269 11,900 -720 Descending Cleveland Center
Thu 08:39:50 AM 42.6389 -77.2739 303° West 235 270 11,700 -1,286 Descending Cleveland Center
Thu 08:40:44 AM 42.6686 -77.3503 298° West 253 291 10,700 -1,100 Descending Cleveland Center
Thu 08:40:50 AM 42.6708 -77.3567 295° West 244 281 10,600 -689 Descending Cleveland Center
Thu 08:41:45 AM 42.7053 -77.4347 301° West 264 304 10,000 -590 Descending Cleveland Center
Thu 08:41:51 AM 42.7081 -77.4422 297° West 266 306 10,000  Level Cleveland Center
Thu 08:42:45 AM 42.7456 -77.5114 306° West 237 273 10,000  Level Cleveland Center
Thu 08:42:53 AM 42.7475 -77.5147 308° West 249 287 10,000  Level Cleveland Center
Thu 08:43:46 AM 42.7789 -77.5892 300° West 232 267 10,000  Level Cleveland Center
Thu 08:43:55 AM 42.7789 -77.5914 270° West 240 276 10,000  Level Cleveland Center
Thu 08:44:47 AM 42.8094 -77.6722 297° West 238 274 10,000  Level Cleveland Center
Thu 08:44:56 AM 42.8075 -77.6694 134° Southeast 235 270 10,000  Level Cleveland Center
Thu 08:45:47 AM 42.8319 -77.7531 292° West 237 273 10,000  Level Cleveland Center
Thu 08:45:58 AM 42.8319 -77.7683 270° West 238 274 10,000 -1,068 Level Cleveland Center
Thu 08:47:00 AM 42.8314 -77.8694 270° West 265 305 8,700 -1,452 Descending Cleveland Center
Thu 08:48:02 AM 42.8289 -77.9594 268° West 258 297 7,000 -1,415 Descending Cleveland Center
Thu 08:49:03 AM 42.8389 -78.0633 278° West 251 289 5,800 -1,033 Descending Cleveland Center
Thu 08:50:04 AM 42.8567 -78.1533 285° West 238 274 4,900 -829 Descending Cleveland Center
Thu 08:51:06 AM 42.8742 -78.2236 289° West 227 261 4,100 -435 Descending Cleveland Center
Thu 08:52:08 AM 42.9022 -78.3139 293° West 222 255 4,000 -49 Descending Cleveland Center
Thu 08:53:09 AM 42.9261 -78.3914 293° West 215 247 4,000 -293 Level Cleveland Center
Thu 08:54:11 AM 42.9469 -78.4711 290° West 217 250 3,400 -726 Descending Cleveland Center
Thu 08:55:13 AM 42.9658 -78.5392 291° West 204 235 2,500 -484 Descending Cleveland Center
Thu 08:56:15 AM 42.9825 -78.6042 289° West 201 231 2,400 -478 Descending Cleveland Center
Thu 08:57:06 AM 42.9833 -78.6500 271° West 108 124 1,600 -488 Descending Buffalo TRACON
Thu 08:58:18 AM 42.9667 -78.6833 236° Southwest 121 139 1,400 -167 Descending Buffalo TRACON
Thu 09:00:00 AM 42.9333 -78.7167 270° West  Level FlightAware
Thu 09:07:00 AM 42.9404 -78.7306 270° West  Level Estimated

Login

Don't have an account? Register now (free) for customized features, flight alerts, and more!